Ruthville, VA (23147)

10:02 PM EDT on August 31, 2016 (GMT -0400)
Sterling Heights | | Change Station

Elev 102 ft 37.41 °N, 77.05 °W | Updated 12 minutes ago

Mostly Cloudy
Mostly Cloudy
77.4 °F
Feels Like 79 °F
N
0.0
Wind Variable Wind from WSW

Today
High -- | Low -- °F
--% Chance of Precip.
Yesterday
High -- | Low -- °F
Precip. -- in
Pressure 29.92 in
Visibility 10.0 miles
Clouds Few 5000 ft
Scattered Clouds 12000 ft
Mostly Cloudy 25000 ft
Heat Index 79 °F
Dew Point 72 °F
Humidity 83%
Rainfall 0.00 in
Snow Depth Not available.
6:38 AM 7:37 PM
Waning Crescent, 0% visible
METAR KRIC 010154Z 15005KT 10SM FEW050 SCT120 BKN250 26/21 A2991 RMK AO2 SLP130 LTG DSNT NW-N T02560206
Pressure 29.92 in
Visibility 10.0 miles
Clouds Few 5000 ft
Scattered Clouds 12000 ft
Mostly Cloudy 25000 ft
Heat Index 79 °F
Dew Point 72 °F
Humidity 83%
Rainfall 0.00 in
Snow Depth Not available.
6:38 AM 7:37 PM
Waning Crescent, 0% visible
METAR KRIC 010154Z 15005KT 10SM FEW050 SCT120 BKN250 26/21 A2991 RMK AO2 SLP130 LTG DSNT NW-N T02560206

10-Day Weather Forecast

Almanac

Astronomy

Aug. 31, 2016 Rise Set
Actual Time
Civil Twilight
Nautical Twilight
Astronomical Twilight
Moon
Length of Visible Light
Length of Day
Tomorrow will be .
, % of the Moon is Illuminated

Today's Extremes

State Highs State Lows

Community

WunderPhotos

Upload Photos

1,936,268 photos uploaded!

WunderBlog® & News

Nearby

Air Quality

  Air Quality AQ Index Pollutant
Not available.

Snow Depth

Station Depth Elevation

Earthquake Activity

City Distance Mag. Time & Date
Minimum magnitude displayed is 2.5.

Coastal Water Temperatures

Place Temperature

Stations

Nearby Weather Stations

Station Location Temp. Windchill Dew Point Humidity Wind Precip. Elev Updated Type
                   

Watches & Warnings

There are currently no watches in effect.